Time;durP1;ratioP1;P1;durP2;ratioP2;P2;SDS_P1;SDS_P2;PMS_P1;PMS_P2;Temp;Humidity;BMP_temperature;BMP_pressure;BME280_temperature;BME280_humidity;BME280_pressure;Samples;Min_cycle;Max_cycle;Signal;HPM_P1;HPM_P2
2024/01/12 00:00:14;;;;;;;29.20;17.38;;;;;;;-7.78;100.00;93905.00;2100749;28;20469;-80
2024/01/12 00:01:59;;;;;;;29.10;18.35;;;;;;;-7.91;100.00;93913.47;2082795;28;20041;-80
2024/01/12 00:05:40;;;;;;;23.30;15.15;;;;;;;-7.91;100.00;93905.69;2085725;28;20469;-80
2024/01/12 00:06:51;;;;;;;28.80;15.68;;;;;;;-7.78;100.00;93909.41;2075528;28;20582;-79
2024/01/12 00:08:19;;;;;;;28.45;16.27;;;;;;;-7.89;100.00;93908.78;2074232;28;21302;-78
2024/01/12 00:11:34;;;;;;;26.38;15.43;;;;;;;-7.74;100.00;93910.41;2085384;28;20473;-80
2024/01/12 00:12:37;;;;;;;26.23;15.73;;;;;;;-7.77;100.00;93903.97;2066901;28;20509;-79
2024/01/12 00:14:09;;;;;;;25.88;16.65;;;;;;;-7.76;100.00;93907.31;2090892;28;20935;-78
2024/01/12 00:15:44;;;;;;;23.35;15.82;;;;;;;-7.69;100.00;93915.50;2088542;28;20546;-79
2024/01/12 00:16:51;;;;;;;26.70;16.02;;;;;;;-7.58;100.00;93908.38;2082995;28;20464;-78
2024/01/12 00:18:36;;;;;;;26.88;15.95;;;;;;;-7.76;100.00;93910.69;2069111;28;21192;-78
2024/01/12 00:19:40;;;;;;;23.65;15.05;;;;;;;-7.70;100.00;93909.56;2084170;28;20534;-78
2024/01/12 00:23:13;;;;;;;23.52;14.82;;;;;;;-7.66;100.00;93910.53;2088499;28;20454;-78
2024/01/12 00:26:29;;;;;;;24.80;15.07;;;;;;;-7.69;100.00;93905.91;2074510;28;20482;-80
2024/01/12 00:28:23;;;;;;;23.25;15.38;;;;;;;-7.70;100.00;93912.16;2061374;28;20492;-77
2024/01/12 00:39:10;;;;;;;25.27;14.73;;;;;;;-7.65;100.00;93914.66;2068313;28;20552;-79
2024/01/12 00:40:11;;;;;;;26.98;15.38;;;;;;;-7.68;100.00;93911.84;2072974;28;20455;-80
2024/01/12 00:41:13;;;;;;;23.92;15.85;;;;;;;-7.64;100.00;93912.84;2090935;28;20058;-77
2024/01/12 00:42:14;;;;;;;25.83;16.20;;;;;;;-7.71;100.00;93909.84;2073410;28;20025;-77
2024/01/12 00:43:14;;;;;;;26.75;15.82;;;;;;;-7.58;100.00;93910.97;2098926;28;20426;-77
2024/01/12 00:44:18;;;;;;;26.85;16.98;;;;;;;-7.59;100.00;93912.78;2078834;28;20704;-79
2024/01/12 00:45:19;;;;;;;26.58;16.17;;;;;;;-7.66;100.00;93901.97;2074397;28;20452;-78
2024/01/12 00:46:19;;;;;;;28.60;17.10;;;;;;;-7.66;100.00;93901.97;2082442;28;20479;-79
2024/01/12 00:47:20;;;;;;;25.17;15.23;;;;;;;-7.59;100.00;93907.59;2072608;28;20017;-78
2024/01/12 00:48:21;;;;;;;29.05;17.40;;;;;;;-7.64;100.00;93899.88;2091637;28;20032;-78
2024/01/12 00:49:22;;;;;;;24.35;15.73;;;;;;;-7.61;100.00;93909.69;2079063;28;20025;-77
2024/01/12 00:50:23;;;;;;;25.42;16.60;;;;;;;-7.62;100.00;93908.91;2090614;28;20021;-80
2024/01/12 00:51:25;;;;;;;26.35;17.10;;;;;;;-7.65;100.00;93914.66;2075362;28;20566;-78
2024/01/12 00:52:25;;;;;;;25.40;16.63;;;;;;;-7.70;100.00;93908.78;2070199;28;22599;-80
2024/01/12 00:53:26;;;;;;;26.08;17.23;;;;;;;-7.77;100.00;93916.13;2089228;28;20874;-78
2024/01/12 00:54:27;;;;;;;30.25;17.70;;;;;;;-7.66;100.00;93913.13;2080764;28;20047;-77
2024/01/12 00:55:29;;;;;;;26.25;17.35;;;;;;;-7.69;100.00;93912.91;2093299;28;20514;-78
2024/01/12 00:56:30;;;;;;;25.27;16.10;;;;;;;-7.76;100.00;93910.69;2077804;28;20074;-79
2024/01/12 00:57:31;;;;;;;27.75;16.98;;;;;;;-7.66;100.00;93915.72;2084469;28;20523;-79
2024/01/12 00:58:33;;;;;;;24.88;16.92;;;;;;;-7.67;100.00;93921.22;2096159;28;20077;-77
2024/01/12 00:59:34;;;;;;;29.27;17.27;;;;;;;-7.70;100.00;93919.94;2073436;28;20101;-77
2024/01/12 01:00:35;;;;;;;28.48;17.25;;;;;;;-7.73;100.00;93920.47;2096909;28;20446;-80
2024/01/12 01:01:36;;;;;;;29.77;17.48;;;;;;;-7.65;100.00;93925.03;2078358;28;20483;-77
2024/01/12 01:02:37;;;;;;;28.65;17.38;;;;;;;-7.64;100.00;93920.63;2092233;28;20815;-78
2024/01/12 01:03:38;;;;;;;28.92;16.67;;;;;;;-7.63;100.00;93929.97;2104292;28;20031;-79
2024/01/12 01:04:39;;;;;;;24.75;16.48;;;;;;;-7.63;100.00;93928.16;2084656;28;20062;-77
2024/01/12 01:05:40;;;;;;;27.30;16.58;;;;;;;-7.65;100.00;93932.84;2100400;28;20462;-80
2024/01/12 01:06:41;;;;;;;25.83;17.10;;;;;;;-7.58;100.00;93934.31;2080693;28;20103;-79
2024/01/12 01:07:42;;;;;;;27.85;16.20;;;;;;;-7.66;100.00;93931.28;2061904;28;20421;-77
2024/01/12 01:08:45;;;;;;;23.38;16.45;;;;;;;-7.63;100.00;93930.75;2084099;28;20443;-77
2024/01/12 01:09:46;;;;;;;26.08;17.10;;;;;;;-7.61;100.00;93925.25;2075378;28;20032;-77
2024/01/12 01:10:47;;;;;;;25.92;16.27;;;;;;;-7.75;100.00;93929.63;2079951;28;20448;-80
2024/01/12 01:11:52;;;;;;;25.25;17.02;;;;;;;-7.87;100.00;93930.78;2066245;28;20512;-79
2024/01/12 01:12:53;;;;;;;25.85;16.42;;;;;;;-7.81;100.00;93931.53;2073889;28;20112;-78
2024/01/12 01:14:19;;;;;;;25.08;17.27;;;;;;;-7.78;100.00;93928.34;2082607;28;20448;-78
2024/01/12 01:17:18;;;;;;;23.63;14.80;;;;;;;-7.83;100.00;93935.44;2078691;28;20464;-78
2024/01/12 01:18:19;;;;;;;26.83;15.93;;;;;;;-7.71;100.00;93941.75;2065664;28;20472;-78
2024/01/12 01:19:20;;;;;;;23.95;15.85;;;;;;;-7.74;100.00;93939.72;2077601;28;20487;-78
2024/01/12 01:20:21;;;;;;;25.92;15.60;;;;;;;-7.68;100.00;93928.22;2068659;28;20026;-79
2024/01/12 01:21:26;;;;;;;28.23;15.98;;;;;;;-7.66;100.00;93933.88;2075089;28;20452;-79
2024/01/12 01:22:31;;;;;;;24.98;16.50;;;;;;;-7.76;100.00;93931.44;2086041;28;20475;-78
2024/01/12 01:23:32;;;;;;;25.58;15.63;;;;;;;-7.75;100.00;93932.22;2064066;28;20940;-78
2024/01/12 01:24:33;;;;;;;28.60;16.80;;;;;;;-7.80;100.00;93935.66;2062872;28;20448;-79
2024/01/12 01:25:36;;;;;;;27.17;16.73;;;;;;;-7.81;100.00;93935.91;2084065;28;20021;-79
2024/01/12 01:27:07;;;;;;;26.58;16.10;;;;;;;-7.82;100.00;93935.16;2065491;28;20600;-78
2024/01/12 01:28:26;;;;;;;24.55;14.32;;;;;;;-7.86;100.00;93932.38;2075733;28;20548;-79
2024/01/12 01:29:27;;;;;;;26.33;15.10;;;;;;;-8.02;100.00;93935.44;2098839;28;20547;-79
2024/01/12 01:30:28;;;;;;;23.67;15.18;;;;;;;-7.87;100.00;93941.19;2084566;28;20826;-78
2024/01/12 01:31:57;;;;;;;24.38;15.43;;;;;;;-7.79;100.00;93934.59;2083343;28;20071;-77
2024/01/12 01:32:58;;;;;;;21.73;13.75;;;;;;;-7.77;100.00;93937.69;2087627;28;20512;-79
2024/01/12 01:33:59;;;;;;;19.98;14.25;;;;;;;-7.78;100.00;93941.31;2095337;28;20028;-79
2024/01/12 01:35:06;;;;;;;23.55;15.48;;;;;;;-7.91;100.00;93940.19;2079169;28;20583;-77
2024/01/12 01:36:07;;;;;;;21.75;14.45;;;;;;;-7.80;100.00;93935.66;2088410;28;20029;-77
2024/01/12 01:37:09;;;;;;;20.70;14.20;;;;;;;-7.74;100.00;93934.53;2087501;28;20466;-79
2024/01/12 01:38:11;;;;;;;21.00;15.52;;;;;;;-7.80;100.00;93943.44;2079378;28;20450;-78
2024/01/12 01:39:51;;;;;;;22.98;14.50;;;;;;;-7.86;100.00;93940.16;2091177;28;20029;-79
2024/01/12 01:40:52;;;;;;;21.38;13.27;;;;;;;-7.73;100.00;93940.47;2089224;28;20764;-78
2024/01/12 01:42:37;;;;;;;24.90;14.98;;;;;;;-7.69;100.00;93936.28;2080190;28;20041;-79
2024/01/12 01:43:46;;;;;;;18.90;13.13;;;;;;;-7.65;100.00;93939.84;2076675;28;20119;-79
2024/01/12 01:45:09;;;;;;;20.33;12.68;;;;;;;-7.68;100.00;93937.81;2085268;28;20524;-78
2024/01/12 01:46:10;;;;;;;18.95;12.68;;;;;;;-7.65;100.00;93939.84;2094310;28;20028;-78
2024/01/12 01:47:17;;;;;;;21.83;13.40;;;;;;;-7.63;100.00;93938.53;2090263;28;20756;-78
2024/01/12 01:48:18;;;;;;;23.20;13.98;;;;;;;-7.71;100.00;93941.75;2081452;28;20897;-78
2024/01/12 01:49:21;;;;;;;20.42;13.15;;;;;;;-7.74;100.00;93942.31;2099519;28;20542;-80
2024/01/12 01:50:22;;;;;;;22.73;14.20;;;;;;;-7.73;100.00;93938.66;2082602;28;20455;-78
2024/01/12 01:51:24;;;;;;;20.98;13.75;;;;;;;-7.72;100.00;93939.44;2094452;28;20467;-79
2024/01/12 01:52:27;;;;;;;21.05;13.85;;;;;;;-7.68;100.00;93938.59;2064280;28;20048;-79
2024/01/12 01:53:29;;;;;;;24.05;13.00;;;;;;;-7.68;100.00;93935.22;2064678;28;20458;-77
2024/01/12 01:54:33;;;;;;;26.05;14.05;;;;;;;-7.72;100.00;93942.03;2095391;28;20458;-77
2024/01/12 01:55:39;;;;;;;21.85;13.77;;;;;;;-7.78;100.00;93940.56;2076128;28;20471;-78
2024/01/12 01:56:41;;;;;;;21.95;13.70;;;;;;;-7.81;100.00;93943.69;2090413;28;20031;-79
2024/01/12 01:57:49;;;;;;;23.95;14.52;;;;;;;-7.77;100.00;93950.66;2090460;28;20634;-80
2024/01/12 02:01:00;;;;;;;22.45;12.23;;;;;;;-7.87;100.00;93946.38;2078416;28;21367;-80
2024/01/12 02:02:03;;;;;;;19.90;13.05;;;;;;;-7.93;100.00;93949.31;2063784;28;20510;-78
2024/01/12 02:03:36;;;;;;;19.30;12.52;;;;;;;-7.83;100.00;93951.78;2083689;28;20495;-78
2024/01/12 02:04:37;;;;;;;19.80;12.82;;;;;;;-7.84;100.00;93946.88;2079649;28;20502;-78
2024/01/12 02:05:41;;;;;;;21.67;12.27;;;;;;;-7.88;100.00;93950.00;2067174;28;20459;-80
2024/01/12 02:06:46;;;;;;;19.90;12.93;;;;;;;-7.79;100.00;93955.34;2094243;28;20478;-79
2024/01/12 02:07:47;;;;;;;24.33;14.52;;;;;;;-7.88;100.00;93952.59;2058686;28;20805;-79
2024/01/12 02:08:49;;;;;;;20.58;12.80;;;;;;;-7.89;100.00;93950.31;2067459;28;20515;-78
2024/01/12 02:09:49;;;;;;;18.98;13.82;;;;;;;-7.97;100.00;93949.09;2065191;28;20431;-79
2024/01/12 02:10:55;;;;;;;21.98;13.95;;;;;;;-7.92;100.00;93953.44;2049801;28;20543;-79
2024/01/12 02:11:56;;;;;;;21.70;14.20;;;;;;;-8.00;100.00;93946.28;2092123;28;20028;-80
2024/01/12 02:12:57;;;;;;;20.67;13.85;;;;;;;-8.00;100.00;93959.25;2064974;28;20456;-82
2024/01/12 02:13:59;;;;;;;20.80;13.93;;;;;;;-7.92;100.00;93948.25;2080673;28;20037;-80
2024/01/12 02:15:00;;;;;;;25.33;13.82;;;;;;;-7.95;100.00;93946.97;2069351;28;20471;-80
2024/01/12 02:16:01;;;;;;;22.45;13.85;;;;;;;-7.91;100.00;93953.16;2064716;28;20997;-79
2024/01/12 02:17:52;;;;;;;19.35;12.95;;;;;;;-7.86;100.00;93952.31;2040492;28;20466;-78
2024/01/12 02:18:53;;;;;;;20.75;13.40;;;;;;;-7.81;100.00;93941.91;2077779;28;20534;-77
2024/01/12 02:19:58;;;;;;;19.40;12.98;;;;;;;-7.77;100.00;93944.69;2077239;28;21188;-78
2024/01/12 02:20:59;;;;;;;23.40;13.70;;;;;;;-7.84;100.00;93949.47;2076214;28;20034;-79
2024/01/12 02:22:02;;;;;;;22.60;13.55;;;;;;;-7.93;100.00;93946.72;2064750;28;20507;-80
2024/01/12 02:23:03;;;;;;;18.95;12.23;;;;;;;-7.89;100.00;93951.06;2073912;28;20566;-80
2024/01/12 02:25:44;;;;;;;18.05;12.07;;;;;;;-8.80;100.00;93959.91;2128962;27;20171;-79
2024/01/12 02:26:47;;;;;;;22.20;12.48;;;;;;;-8.70;100.00;93954.63;2111725;27;20035;-80
2024/01/12 02:27:48;;;;;;;20.00;12.88;;;;;;;-8.69;100.00;93956.94;2116960;28;20838;-78
2024/01/12 02:28:49;;;;;;;22.90;13.98;;;;;;;-8.66;100.00;93958.97;2102152;28;20023;-78
2024/01/12 02:29:51;;;;;;;21.33;13.77;;;;;;;-8.59;100.00;93957.91;2104255;27;20472;-79
2024/01/12 02:30:52;;;;;;;21.45;12.93;;;;;;;-8.67;100.00;93952.25;2119717;28;20035;-78
2024/01/12 02:31:55;;;;;;;21.75;13.57;;;;;;;-8.60;100.00;93954.53;2100211;28;20563;-78
2024/01/12 02:34:53;;;;;;;21.73;12.10;;;;;;;-8.53;100.00;93949.00;2116249;28;20514;-79
2024/01/12 02:36:25;;;;;;;20.25;13.60;;;;;;;-8.53;100.00;93944.59;2106478;28;20460;-78
2024/01/12 02:37:28;;;;;;;18.25;13.05;;;;;;;-8.55;100.00;93945.94;2098532;27;20023;-79
2024/01/12 02:39:26;;;;;;;18.55;13.02;;;;;;;-8.59;100.00;93943.13;2116775;28;20462;-78
2024/01/12 02:40:28;;;;;;;19.33;11.45;;;;;;;-8.59;100.00;93942.34;2103615;28;20456;-77
2024/01/12 02:41:35;;;;;;;22.38;13.80;;;;;;;-8.61;100.00;93940.00;2118672;28;20464;-77
2024/01/12 02:43:23;;;;;;;20.30;12.55;;;;;;;-8.54;100.00;93944.88;2103107;28;20980;-79
2024/01/12 02:45:17;;;;;;;20.10;12.07;;;;;;;-8.48;100.00;93941.19;2098979;28;20544;-77
2024/01/12 02:46:24;;;;;;;16.60;11.90;;;;;;;-8.51;100.00;93945.09;2109004;28;20814;-79
2024/01/12 02:48:16;;;;;;;19.40;12.30;;;;;;;-8.58;100.00;93936.88;2104352;28;20465;-81
2024/01/12 02:49:17;;;;;;;17.90;11.32;;;;;;;-8.53;100.00;93946.41;2090976;28;20619;-78
2024/01/12 02:50:18;;;;;;;21.13;13.13;;;;;;;-8.44;100.00;93940.34;2106669;28;21027;-80
2024/01/12 02:51:25;;;;;;;18.77;12.50;;;;;;;-8.43;100.00;93938.53;2105176;28;20039;-78
2024/01/12 02:52:26;;;;;;;21.25;12.75;;;;;;;-8.43;100.00;93941.13;2093778;28;20097;-78
2024/01/12 02:53:27;;;;;;;21.48;13.02;;;;;;;-8.39;100.00;93942.88;2099083;28;20993;-78
2024/01/12 02:54:28;;;;;;;21.90;13.80;;;;;;;-8.41;100.00;93939.81;2107093;28;20392;-77
2024/01/12 02:55:29;;;;;;;22.50;14.38;;;;;;;-8.47;100.00;93940.91;2114292;28;20471;-80
2024/01/12 02:57:04;;;;;;;20.10;13.43;;;;;;;-8.46;100.00;93936.50;2106726;28;20460;-78
2024/01/12 02:58:05;;;;;;;17.95;12.10;;;;;;;-8.48;100.00;93943.75;2090015;28;20032;-78
2024/01/12 02:59:06;;;;;;;21.20;13.40;;;;;;;-8.51;100.00;93942.50;2093993;28;20598;-77
2024/01/12 03:02:54;;;;;;;20.98;11.95;;;;;;;-8.54;100.00;93935.28;2115670;28;20023;-78
2024/01/12 03:08:03;;;;;;;21.88;12.30;;;;;;;-8.69;100.00;93933.63;2117852;28;20452;-79
2024/01/12 03:09:30;;;;;;;20.17;12.25;;;;;;;-8.67;100.00;93934.13;2119836;28;20453;-78
2024/01/12 03:12:28;;;;;;;18.15;11.02;;;;;;;-8.55;100.00;93938.16;2118240;27;20474;-79
2024/01/12 03:13:32;;;;;;;20.67;12.80;;;;;;;-8.54;100.00;93943.06;2087507;28;20509;-78
2024/01/12 03:18:28;;;;;;;18.33;11.15;;;;;;;-8.58;100.00;93933.53;2106926;28;21069;-77
2024/01/12 03:19:29;;;;;;;20.42;12.02;;;;;;;-8.56;100.00;93928.81;2099537;28;20610;-79
2024/01/12 03:20:30;;;;;;;20.08;12.20;;;;;;;-8.52;100.00;93930.59;2101657;28;20472;-78
2024/01/12 03:21:31;;;;;;;19.58;12.40;;;;;;;-8.52;100.00;93930.59;2103340;28;20024;-80
2024/01/12 03:22:32;;;;;;;20.83;13.43;;;;;;;-8.49;100.00;93924.09;2115890;27;20055;-78
2024/01/12 03:23:33;;;;;;;17.20;12.25;;;;;;;-8.51;100.00;93918.41;2102234;28;20031;-79
2024/01/12 03:24:33;;;;;;;20.13;12.90;;;;;;;-8.56;100.00;93916.63;2113447;28;20027;-80
2024/01/12 03:25:34;;;;;;;20.38;13.18;;;;;;;-8.56;100.00;93916.63;2106282;28;20097;-80
2024/01/12 03:26:37;;;;;;;19.25;12.27;;;;;;;-8.51;100.00;93916.59;2100799;28;20491;-77
2024/01/12 03:27:38;;;;;;;19.95;12.52;;;;;;;-8.57;100.00;93915.09;2119035;27;20043;-79
2024/01/12 03:28:39;;;;;;;21.00;13.30;;;;;;;-8.48;100.00;93917.84;2105399;28;20453;-79
2024/01/12 03:29:40;;;;;;;18.73;12.20;;;;;;;-8.58;100.00;93910.97;2097192;28;20415;-79
2024/01/12 03:30:41;;;;;;;20.83;13.02;;;;;;;-8.59;100.00;93909.44;2088504;28;20496;-77
2024/01/12 03:31:42;;;;;;;21.45;13.43;;;;;;;-8.58;100.00;93905.00;2089512;28;20046;-81
2024/01/12 03:32:43;;;;;;;22.27;13.50;;;;;;;-8.57;100.00;93914.31;2111017;28;21254;-80
2024/01/12 03:33:44;;;;;;;19.52;12.88;;;;;;;-8.54;100.00;93909.38;2102992;28;20481;-78
2024/01/12 03:34:45;;;;;;;19.75;12.18;;;;;;;-8.57;100.00;93919.50;2095595;28;20465;-79
2024/01/12 03:35:46;;;;;;;17.38;11.82;;;;;;;-8.58;100.00;93908.38;2092136;28;20024;-77
2024/01/12 03:36:49;;;;;;;19.42;12.93;;;;;;;-8.55;100.00;93912.25;2097473;28;23519;-79
2024/01/12 03:37:50;;;;;;;18.63;12.45;;;;;;;-8.66;100.00;93904.56;2107888;28;20465;-80
2024/01/12 03:38:53;;;;;;;22.73;13.98;;;;;;;-8.63;100.00;93911.78;2100352;28;20078;-79
2024/01/12 03:39:55;;;;;;;20.88;13.65;;;;;;;-8.60;100.00;93914.88;2086536;28;20050;-79
2024/01/12 03:40:56;;;;;;;21.92;13.40;;;;;;;-8.47;100.00;93915.00;2098888;28;20468;-78
2024/01/12 03:42:44;;;;;;;18.88;12.75;;;;;;;-8.51;100.00;93908.81;2092220;28;20522;-77
2024/01/12 03:43:46;;;;;;;17.13;11.40;;;;;;;-8.47;100.00;93920.19;2091747;28;20911;-79
2024/01/12 03:44:48;;;;;;;19.38;11.40;;;;;;;-8.47;100.00;93920.19;2100030;28;20763;-79
2024/01/12 03:46:32;;;;;;;18.48;11.80;;;;;;;-8.63;100.00;93916.97;2091225;28;20561;-78
2024/01/12 03:47:33;;;;;;;16.75;10.60;;;;;;;-8.64;100.00;93920.63;2109691;28;21133;-79
2024/01/12 03:48:34;;;;;;;19.25;11.70;;;;;;;-8.70;100.00;93926.88;2082828;28;20503;-77
2024/01/12 03:49:35;;;;;;;19.67;11.70;;;;;;;-8.66;100.00;93922.69;2105198;28;20498;-76
2024/01/12 03:50:36;;;;;;;17.52;12.18;;;;;;;-8.65;100.00;93929.44;2098946;28;20463;-79
2024/01/12 03:51:37;;;;;;;19.05;12.40;;;;;;;-8.60;100.00;93927.81;2097844;28;20438;-79
2024/01/12 03:52:39;;;;;;;19.75;12.18;;;;;;;-8.66;100.00;93933.06;2088404;28;20524;-80
2024/01/12 03:53:40;;;;;;;19.73;12.07;;;;;;;-8.64;100.00;93932.81;2098868;28;20016;-78
2024/01/12 03:54:41;;;;;;;19.02;12.52;;;;;;;-8.68;100.00;93930.00;2110051;28;20450;-79
2024/01/12 03:55:42;;;;;;;19.45;12.00;;;;;;;-8.60;100.00;93931.22;2088710;28;20201;-78
2024/01/12 03:56:42;;;;;;;20.70;13.40;;;;;;;-8.62;100.00;93928.88;2112526;28;20039;-79
2024/01/12 03:57:43;;;;;;;17.77;11.77;;;;;;;-8.68;100.00;93927.41;2101628;28;20058;-79
2024/01/12 03:58:44;;;;;;;22.25;12.85;;;;;;;-8.69;100.00;93925.88;2085047;28;20062;-77
2024/01/12 03:59:45;;;;;;;21.63;13.02;;;;;;;-8.69;100.00;93931.03;2106115;28;20031;-80
2024/01/12 04:00:46;;;;;;;18.15;12.40;;;;;;;-8.67;100.00;93923.00;2100825;28;20027;-78
2024/01/12 04:01:47;;;;;;;19.90;12.20;;;;;;;-8.67;100.00;93928.94;2105313;28;20043;-79
2024/01/12 04:02:48;;;;;;;18.45;11.85;;;;;;;-8.70;100.00;93920.94;2091306;28;20024;-78
2024/01/12 04:03:49;;;;;;;19.38;12.00;;;;;;;-8.66;100.00;93922.69;2078559;28;20883;-79
2024/01/12 04:04:50;;;;;;;18.15;11.57;;;;;;;-8.59;100.00;93919.03;2091373;28;20025;-77
2024/01/12 04:05:51;;;;;;;17.65;12.10;;;;;;;-8.52;100.00;93924.63;2094932;28;20024;-77
2024/01/12 04:06:53;;;;;;;19.77;12.57;;;;;;;-8.54;100.00;93916.38;2110667;28;20035;-80
2024/01/12 04:07:54;;;;;;;18.85;12.00;;;;;;;-8.66;100.00;93916.75;2101671;28;20464;-79
2024/01/12 04:08:55;;;;;;;16.42;11.63;;;;;;;-8.65;100.00;93919.09;2085982;28;21501;-80
2024/01/12 04:09:55;;;;;;;18.05;11.82;;;;;;;-8.66;100.00;93925.28;2102214;28;20167;-78
2024/01/12 04:10:56;;;;;;;17.63;10.90;;;;;;;-8.65;100.00;93919.09;2087126;28;20032;-80
2024/01/12 04:11:57;;;;;;;16.85;10.73;;;;;;;-8.58;100.00;93925.75;2101065;28;20035;-79
2024/01/12 04:12:58;;;;;;;17.70;11.65;;;;;;;-8.61;100.00;93924.47;2104027;28;20027;-77
2024/01/12 04:13:59;;;;;;;18.63;10.88;;;;;;;-8.60;100.00;93920.84;2094143;28;20026;-78
2024/01/12 04:15:00;;;;;;;16.67;10.20;;;;;;;-8.69;100.00;93928.47;2110850;28;20125;-79
2024/01/12 04:16:01;;;;;;;18.15;11.73;;;;;;;-8.75;100.00;93921.75;2096255;28;20034;-78
2024/01/12 04:17:02;;;;;;;17.65;10.77;;;;;;;-8.66;100.00;93921.94;2108397;28;20023;-79
2024/01/12 04:18:04;;;;;;;18.08;11.57;;;;;;;-8.68;100.00;93917.03;2103962;28;20477;-79
2024/01/12 04:19:06;;;;;;;16.58;10.60;;;;;;;-8.76;100.00;93916.88;2096244;28;20521;-77
2024/01/12 04:20:08;;;;;;;16.90;10.88;;;;;;;-8.62;100.00;93915.91;2110289;28;20445;-77
2024/01/12 04:21:09;;;;;;;16.88;10.52;;;;;;;-8.70;100.00;93918.34;2098232;28;20457;-79
2024/01/12 04:22:10;;;;;;;18.63;11.55;;;;;;;-8.59;100.00;93927.56;2112731;28;20456;-80
2024/01/12 04:23:11;;;;;;;17.25;10.13;;;;;;;-8.73;100.00;93922.28;2101021;28;20534;-79
2024/01/12 04:24:12;;;;;;;15.85;10.75;;;;;;;-8.65;100.00;93913.91;2089804;28;20862;-77
2024/01/12 04:25:13;;;;;;;18.02;10.93;;;;;;;-8.64;100.00;93914.66;2110067;28;20050;-78
2024/01/12 04:26:14;;;;;;;18.92;10.85;;;;;;;-8.61;100.00;93919.28;2088756;28;20028;-77
2024/01/12 04:27:17;;;;;;;16.80;10.93;;;;;;;-8.65;100.00;93918.28;2101833;28;20476;-77
2024/01/12 04:28:18;;;;;;;16.23;10.63;;;;;;;-8.75;100.00;93919.16;2100359;28;20468;-80
2024/01/12 04:29:19;;;;;;;19.02;11.15;;;;;;;-8.73;100.00;93916.31;2097740;28;20798;-79
2024/01/12 04:30:20;;;;;;;20.95;11.57;;;;;;;-8.66;100.00;93917.53;2113526;28;20027;-79
2024/01/12 04:31:27;;;;;;;16.30;11.45;;;;;;;-8.68;100.00;93911.84;2092327;28;20496;-78
2024/01/12 04:32:28;;;;;;;19.05;11.48;;;;;;;-8.70;100.00;93908.75;2108585;28;21189;-79
2024/01/12 04:33:33;;;;;;;17.42;11.38;;;;;;;-8.67;100.00;93903.03;2094653;28;20024;-79
2024/01/12 04:34:38;;;;;;;17.35;10.90;;;;;;;-8.63;100.00;93905.84;2097796;28;20027;-80
2024/01/12 04:35:39;;;;;;;16.63;11.13;;;;;;;-8.58;100.00;93900.59;2106208;28;20446;-80
2024/01/12 04:36:39;;;;;;;18.85;11.32;;;;;;;-8.62;100.00;93904.78;2080808;28;20461;-78
2024/01/12 04:37:40;;;;;;;17.08;11.45;;;;;;;-8.65;100.00;93898.34;2088424;28;20473;-77
2024/01/12 04:38:43;;;;;;;18.13;11.10;;;;;;;-8.65;100.00;93906.13;2100413;28;20024;-79
2024/01/12 04:39:44;;;;;;;15.85;10.10;;;;;;;-8.66;100.00;93901.19;2099502;28;21085;-78
2024/01/12 04:40:45;;;;;;;17.42;10.88;;;;;;;-8.62;100.00;93907.38;2110546;28;20433;-80
2024/01/12 04:41:46;;;;;;;17.10;10.80;;;;;;;-8.80;100.00;93902.91;2096443;28;20034;-79
2024/01/12 04:42:47;;;;;;;18.70;11.98;;;;;;;-8.73;100.00;93895.59;2094839;28;21239;-80
2024/01/12 04:43:48;;;;;;;15.23;10.63;;;;;;;-8.71;100.00;93903.84;2092839;28;20028;-79
2024/01/12 04:44:49;;;;;;;17.00;10.18;;;;;;;-8.64;100.00;93899.91;2081517;28;20505;-78
2024/01/12 04:45:50;;;;;;;14.82;11.18;;;;;;;-8.62;100.00;93902.97;2109648;28;20024;-77
2024/01/12 04:46:51;;;;;;;17.67;11.55;;;;;;;-8.69;100.00;93897.38;2096839;28;20396;-77
2024/01/12 04:47:52;;;;;;;15.60;10.98;;;;;;;-8.77;100.00;93897.19;2099497;28;20439;-78
2024/01/12 04:48:53;;;;;;;17.63;10.95;;;;;;;-8.70;100.00;93900.22;2100583;28;20149;-79
2024/01/12 04:49:54;;;;;;;17.92;11.18;;;;;;;-8.64;100.00;93905.06;2094965;28;20690;-80
2024/01/12 04:50:55;;;;;;;16.17;11.00;;;;;;;-8.64;100.00;93902.47;2111419;28;20031;-78
2024/01/12 04:51:56;;;;;;;16.70;11.50;;;;;;;-8.68;100.00;93909.25;2099430;27;20266;-80
2024/01/12 04:52:57;;;;;;;16.95;10.57;;;;;;;-8.68;100.00;93904.09;2094484;28;20464;-77
2024/01/12 04:53:57;;;;;;;17.27;11.07;;;;;;;-8.70;100.00;93903.56;2108970;28;20079;-77
2024/01/12 04:54:59;;;;;;;16.02;11.20;;;;;;;-8.66;100.00;93896.78;2099049;28;20372;-80
2024/01/12 04:56:01;;;;;;;16.33;11.35;;;;;;;-8.70;100.00;93895.78;2108992;28;20465;-77
2024/01/12 04:57:02;;;;;;;16.90;11.02;;;;;;;-8.67;100.00;93903.03;2098408;28;20441;-79
2024/01/12 04:58:03;;;;;;;17.08;11.30;;;;;;;-8.66;100.00;93908.97;2100858;28;20505;-77
2024/01/12 04:59:04;;;;;;;19.20;10.80;;;;;;;-8.62;100.00;93902.97;2096829;28;20458;-78
2024/01/12 05:00:06;;;;;;;17.90;11.40;;;;;;;-8.68;100.00;93903.31;2096472;28;20461;-78
2024/01/12 05:05:08;;;;;;;14.95;9.68;;;;;;;-8.71;100.00;93912.41;2106513;28;20437;-78
2024/01/12 05:06:10;;;;;;;15.63;10.57;;;;;;;-8.77;100.00;93916.09;2100452;28;20976;-76
2024/01/12 05:07:12;;;;;;;15.75;11.07;;;;;;;-8.79;100.00;93909.63;2096330;28;20475;-80
2024/01/12 05:08:17;;;;;;;17.08;11.05;;;;;;;-8.70;100.00;93915.75;2110444;28;20461;-78
2024/01/12 05:09:18;;;;;;;18.90;12.07;;;;;;;-8.85;100.00;93908.94;2099944;28;20461;-78
2024/01/12 05:10:19;;;;;;;16.98;10.80;;;;;;;-8.77;100.00;93908.31;2091028;28;20485;-79
2024/01/12 05:12:15;;;;;;;19.50;11.50;;;;;;;-8.65;100.00;93911.31;2090281;28;20397;-79
2024/01/12 05:13:16;;;;;;;16.92;9.52;;;;;;;-8.70;100.00;93913.16;2109684;28;20389;-77
2024/01/12 05:14:17;;;;;;;16.58;10.60;;;;;;;-8.60;100.00;93912.28;2090001;28;20469;-77
2024/01/12 05:15:19;;;;;;;19.30;11.63;;;;;;;-8.56;100.00;93913.28;2086440;28;20016;-80
2024/01/12 05:16:20;;;;;;;19.30;11.82;;;;;;;-8.67;100.00;93915.97;2091508;28;20077;-78
2024/01/12 05:17:22;;;;;;;17.38;11.45;;;;;;;-8.66;100.00;93919.34;2087410;28;20839;-78
2024/01/12 05:18:23;;;;;;;17.58;11.20;;;;;;;-8.69;100.00;93912.09;2109301;28;20519;-80
2024/01/12 05:19:24;;;;;;;16.30;10.95;;;;;;;-8.65;100.00;93919.09;2084578;28;20464;-78
2024/01/12 05:20:25;;;;;;;19.73;11.95;;;;;;;-8.57;100.00;93914.31;2109542;28;20038;-78
2024/01/12 05:21:28;;;;;;;18.60;10.98;;;;;;;-8.58;100.00;93917.97;2088128;28;20636;-80
2024/01/12 05:22:29;;;;;;;18.45;10.95;;;;;;;-8.54;100.00;93916.38;2106228;28;20486;-78
2024/01/12 05:23:29;;;;;;;18.35;11.98;;;;;;;-8.69;100.00;93917.28;2109700;28;20076;-77
2024/01/12 05:24:30;;;;;;;14.45;10.32;;;;;;;-8.66;100.00;93914.94;2089549;28;20470;-79
2024/01/12 05:25:31;;;;;;;17.42;11.80;;;;;;;-8.60;100.00;93914.88;2100282;28;20723;-79
2024/01/12 05:26:34;;;;;;;18.13;11.43;;;;;;;-8.56;100.00;93919.22;2079348;28;20020;-77
2024/01/12 05:27:35;;;;;;;16.90;10.93;;;;;;;-8.71;100.00;93917.56;2095384;28;20032;-78
2024/01/12 05:28:37;;;;;;;15.85;11.52;;;;;;;-8.62;100.00;93917.75;2100698;28;20821;-79
2024/01/12 05:29:38;;;;;;;16.40;11.23;;;;;;;-8.57;100.00;93919.50;2093704;28;20115;-78
2024/01/12 05:30:39;;;;;;;18.17;11.38;;;;;;;-8.64;100.00;93917.25;2113160;28;20800;-80
2024/01/12 05:31:43;;;;;;;17.77;11.48;;;;;;;-8.62;100.00;93926.28;2093269;28;20461;-78
2024/01/12 05:32:45;;;;;;;18.65;11.65;;;;;;;-8.67;100.00;93928.16;2099385;28;20024;-78
2024/01/12 05:33:46;;;;;;;18.73;11.45;;;;;;;-8.60;100.00;93935.59;2104695;28;20556;-79
2024/01/12 05:34:47;;;;;;;17.65;11.73;;;;;;;-8.58;100.00;93925.75;2099029;28;20460;-80
2024/01/12 05:35:49;;;;;;;19.77;11.77;;;;;;;-8.60;100.00;93926.03;2111781;28;20106;-79
2024/01/12 05:36:50;;;;;;;21.45;11.95;;;;;;;-8.56;100.00;93936.59;2100397;28;20973;-77
2024/01/12 05:37:51;;;;;;;16.30;10.90;;;;;;;-8.57;100.00;93938.41;2098215;28;20450;-80
2024/01/12 05:38:53;;;;;;;20.27;11.90;;;;;;;-8.62;100.00;93930.69;2113128;28;20313;-80
2024/01/12 05:39:54;;;;;;;18.58;11.95;;;;;;;-8.63;100.00;93935.13;2097662;28;20511;-80